Time;durP1;ratioP1;P1;durP2;ratioP2;P2;SDS_P1;SDS_P2;PMS_P1;PMS_P2;Temp;Humidity;BMP_temperature;BMP_pressure;BME280_temperature;BME280_humidity;BME280_pressure;Samples;Min_cycle;Max_cycle;Signal;HPM_P1;HPM_P2
2022/05/09 00:01:57;;;;;;;18.30;4.28;;;11.30;99.90;;;;;;5034822;28;20048;-72
2022/05/09 00:04:23;;;;;;;23.33;4.35;;;11.20;99.90;;;;;;5040508;28;20036;-72
2022/05/09 00:06:49;;;;;;;22.98;4.75;;;11.10;99.90;;;;;;5041642;28;20025;-74
2022/05/09 00:09:16;;;;;;;23.55;4.97;;;11.10;99.90;;;;;;5035084;28;20092;-72
2022/05/09 00:11:42;;;;;;;15.93;4.00;;;11.00;99.90;;;;;;5016034;28;20032;-73
2022/05/09 00:14:08;;;;;;;20.80;4.85;;;10.90;99.90;;;;;;5036427;28;20089;-73
2022/05/09 00:16:34;;;;;;;17.67;4.00;;;10.90;99.90;;;;;;5016782;28;20505;-71
2022/05/09 00:19:03;;;;;;;15.32;4.03;;;10.80;99.90;;;;;;5035521;28;20017;-73
2022/05/09 00:21:31;;;;;;;18.25;4.35;;;10.80;99.90;;;;;;5046230;28;20446;-73
2022/05/09 00:23:57;;;;;;;17.67;4.10;;;10.70;99.90;;;;;;5046931;28;20022;-73
2022/05/09 00:26:22;;;;;;;13.00;3.67;;;10.70;99.90;;;;;;5034382;28;20028;-72
2022/05/09 00:28:48;;;;;;;25.17;4.28;;;10.60;99.90;;;;;;5034566;28;20029;-73
2022/05/09 00:31:13;;;;;;;16.98;4.55;;;10.60;99.90;;;;;;5050818;28;20111;-74
2022/05/09 00:33:39;;;;;;;16.27;4.50;;;10.60;99.90;;;;;;5053267;28;20041;-74
2022/05/09 00:36:05;;;;;;;16.73;4.40;;;10.50;99.90;;;;;;5051171;28;20505;-73
2022/05/09 00:38:32;;;;;;;55.72;24.95;;;10.50;99.90;;;;;;5039593;28;20036;-72
2022/05/09 00:43:42;;;;;;;22.65;8.00;;;10.50;99.90;;;;;;5036006;28;20564;-72
2022/05/09 00:46:08;;;;;;;26.85;7.38;;;10.40;99.90;;;;;;5038916;28;20060;-73
2022/05/09 00:48:34;;;;;;;13.63;4.97;;;10.40;99.90;;;;;;5039001;28;20432;-72
2022/05/09 00:51:01;;;;;;;15.18;4.90;;;10.40;99.90;;;;;;5020797;28;20048;-72
2022/05/09 00:53:30;;;;;;;14.52;4.25;;;10.40;99.90;;;;;;5019664;28;20029;-75
2022/05/09 00:56:00;;;;;;;14.70;4.65;;;10.40;99.90;;;;;;5037605;28;20026;-72
2022/05/09 00:58:40;;;;;;;14.63;4.28;;;10.40;99.90;;;;;;5019993;28;20032;-73
2022/05/09 01:01:09;;;;;;;19.75;5.07;;;10.50;99.90;;;;;;5036436;28;20021;-73
2022/05/09 01:03:50;;;;;;;17.73;4.68;;;10.50;99.90;;;;;;5039384;28;20128;-73
2022/05/09 01:06:16;;;;;;;16.98;5.57;;;10.50;99.90;;;;;;5038931;28;20022;-74
2022/05/09 01:08:42;;;;;;;15.90;4.70;;;10.50;99.90;;;;;;5019244;28;20022;-73
2022/05/09 01:11:14;;;;;;;22.92;5.28;;;10.40;99.90;;;;;;5016457;28;20025;-73
2022/05/09 01:13:46;;;;;;;19.25;4.40;;;10.40;99.90;;;;;;5014892;28;20029;-73
2022/05/09 01:16:16;;;;;;;19.70;5.45;;;10.30;99.90;;;;;;5032827;28;20032;-74
2022/05/09 01:18:43;;;;;;;16.27;4.07;;;10.30;99.90;;;;;;5014823;28;20099;-72
2022/05/09 01:21:27;;;;;;;16.40;4.60;;;10.20;99.90;;;;;;5015124;28;20029;-73
2022/05/09 01:23:53;;;;;;;18.63;4.53;;;10.10;99.90;;;;;;5032508;28;20033;-74
2022/05/09 01:26:18;;;;;;;9.85;3.95;;;10.00;99.90;;;;;;5014251;28;20082;-75
2022/05/09 01:28:44;;;;;;;17.40;3.88;;;10.00;99.90;;;;;;5032399;28;20030;-71
2022/05/09 01:31:12;;;;;;;10.95;3.47;;;9.90;99.90;;;;;;5032083;28;20045;-73
2022/05/09 01:33:44;;;;;;;20.58;4.05;;;9.90;99.90;;;;;;5031648;28;20021;-74
2022/05/09 01:36:20;;;;;;;11.05;4.03;;;9.90;99.90;;;;;;5015770;28;20582;-73
2022/05/09 01:38:57;;;;;;;14.02;4.20;;;9.90;99.90;;;;;;5035910;28;20502;-74
2022/05/09 01:41:24;;;;;;;15.75;4.15;;;9.90;99.90;;;;;;5018268;28;20475;-73
2022/05/09 01:43:55;;;;;;;17.85;4.03;;;9.90;99.90;;;;;;5018096;28;20264;-73
2022/05/09 01:46:28;;;;;;;13.15;3.88;;;9.90;99.90;;;;;;5035688;28;20462;-72
2022/05/09 01:51:41;;;;;;;11.90;4.25;;;9.80;99.90;;;;;;5039034;28;20338;-73
2022/05/09 01:54:08;;;;;;;11.90;4.05;;;9.70;99.90;;;;;;5036101;28;20068;-73
2022/05/09 01:56:36;;;;;;;19.13;4.72;;;9.70;99.90;;;;;;5017609;28;20026;-72
2022/05/09 01:59:03;;;;;;;13.75;4.72;;;9.70;99.90;;;;;;5035603;28;20029;-73
2022/05/09 02:01:34;;;;;;;15.70;4.82;;;9.70;99.90;;;;;;5035219;28;20025;-72
2022/05/09 02:04:00;;;;;;;12.60;4.10;;;9.70;99.90;;;;;;5017799;28;20029;-72
2022/05/09 02:06:26;;;;;;;18.17;3.78;;;9.70;99.90;;;;;;5035050;28;20025;-72
2022/05/09 02:08:51;;;;;;;11.98;3.97;;;9.60;99.90;;;;;;5035301;28;20398;-72
2022/05/09 02:11:17;;;;;;;15.02;4.03;;;9.60;99.90;;;;;;5034911;28;20100;-72
2022/05/09 02:13:43;;;;;;;16.42;3.85;;;9.60;99.90;;;;;;5035164;28;20036;-76
2022/05/09 02:16:09;;;;;;;16.08;4.57;;;9.60;99.90;;;;;;5015083;28;20217;-72
2022/05/09 02:18:35;;;;;;;16.15;4.35;;;9.60;99.90;;;;;;5035477;28;20033;-72
2022/05/09 02:21:02;;;;;;;17.02;4.53;;;9.60;99.90;;;;;;5035002;28;20083;-72
2022/05/09 02:23:27;;;;;;;18.35;3.92;;;9.60;99.90;;;;;;5034972;28;20030;-72
2022/05/09 02:25:53;;;;;;;21.65;4.70;;;9.50;99.90;;;;;;5034363;28;20109;-73
2022/05/09 02:28:21;;;;;;;20.17;4.47;;;9.50;99.90;;;;;;5034848;28;20267;-71
2022/05/09 02:30:47;;;;;;;15.02;4.40;;;9.50;99.90;;;;;;5034654;28;20013;-71
2022/05/09 02:33:13;;;;;;;15.18;4.10;;;9.50;99.90;;;;;;5034683;28;20475;-71
2022/05/09 02:35:39;;;;;;;19.27;4.25;;;9.50;99.90;;;;;;5034427;28;20374;-70
2022/05/09 02:38:05;;;;;;;16.23;4.20;;;9.50;99.90;;;;;;5034585;28;20022;-72
2022/05/09 02:40:33;;;;;;;12.85;3.55;;;9.40;99.90;;;;;;5034536;28;20052;-71
2022/05/09 02:42:58;;;;;;;12.10;4.20;;;9.40;99.90;;;;;;5034408;28;20397;-71
2022/05/09 02:45:25;;;;;;;11.68;3.67;;;9.30;99.90;;;;;;5033698;28;20036;-71
2022/05/09 02:47:51;;;;;;;17.10;4.00;;;9.20;99.90;;;;;;5034218;28;20028;-71
2022/05/09 02:50:17;;;;;;;12.55;3.90;;;9.20;99.90;;;;;;5034640;28;20037;-72
2022/05/09 02:52:43;;;;;;;18.67;4.28;;;9.10;99.90;;;;;;5036508;28;20028;-71
2022/05/09 02:55:11;;;;;;;14.68;4.00;;;9.10;99.90;;;;;;5034516;28;20497;-71
2022/05/09 02:57:36;;;;;;;10.10;3.97;;;9.00;99.90;;;;;;5034216;28;20482;-71
2022/05/09 03:00:09;;;;;;;14.50;4.97;;;9.10;99.90;;;;;;5034243;28;20080;-71
2022/05/09 03:02:35;;;;;;;11.75;4.15;;;9.10;99.90;;;;;;5016406;28;20030;-72
2022/05/09 03:05:00;;;;;;;9.80;3.35;;;9.00;99.90;;;;;;5034337;28;20028;-71
2022/05/09 03:07:26;;;;;;;16.15;4.40;;;9.00;99.90;;;;;;5033971;28;20028;-71
2022/05/09 03:09:51;;;;;;;10.68;3.92;;;9.00;99.90;;;;;;5033940;28;20486;-71
2022/05/09 03:12:19;;;;;;;17.05;5.15;;;9.00;99.90;;;;;;5016200;28;20033;-71
2022/05/09 03:14:46;;;;;;;10.32;4.20;;;9.00;99.90;;;;;;5034510;28;20482;-72
2022/05/09 03:17:12;;;;;;;13.82;4.47;;;8.90;99.90;;;;;;5035643;28;20068;-71
2022/05/09 03:19:38;;;;;;;10.20;3.95;;;8.80;99.90;;;;;;5034949;28;20497;-71
2022/05/09 03:22:04;;;;;;;9.43;4.10;;;8.80;99.90;;;;;;5033856;28;20030;-71
2022/05/09 03:24:30;;;;;;;12.18;3.83;;;8.70;99.90;;;;;;5033433;28;20068;-69
2022/05/09 03:26:56;;;;;;;24.63;4.53;;;8.70;99.90;;;;;;5033203;28;20064;-71
2022/05/09 03:29:24;;;;;;;12.95;4.50;;;8.70;99.90;;;;;;5033528;28;20022;-71
2022/05/09 03:31:52;;;;;;;19.10;4.90;;;8.60;99.90;;;;;;5015951;28;20056;-70
2022/05/09 03:34:18;;;;;;;12.18;4.13;;;8.60;99.90;;;;;;5033777;28;20021;-71
2022/05/09 03:36:44;;;;;;;11.50;4.05;;;8.60;99.90;;;;;;5033444;28;20025;-70
2022/05/09 03:39:09;;;;;;;21.48;4.97;;;8.50;99.90;;;;;;5016239;28;20505;-71
2022/05/09 03:41:35;;;;;;;20.80;4.80;;;8.40;99.90;;;;;;5033482;28;20411;-71
2022/05/09 03:44:00;;;;;;;10.68;4.15;;;8.40;99.90;;;;;;5033975;28;20083;-69
2022/05/09 03:46:26;;;;;;;14.60;4.00;;;8.40;99.90;;;;;;5033455;28;20096;-70
2022/05/09 03:48:52;;;;;;;15.43;3.80;;;8.40;99.90;;;;;;5033449;28;20022;-70
2022/05/09 03:51:17;;;;;;;16.60;4.82;;;8.40;99.90;;;;;;5033170;28;20029;-70
2022/05/09 03:53:43;;;;;;;11.07;3.95;;;8.40;99.90;;;;;;5033335;28;20052;-72
2022/05/09 03:56:10;;;;;;;17.17;4.85;;;8.30;99.90;;;;;;5033020;28;20061;-69
2022/05/09 03:58:35;;;;;;;16.08;6.93;;;8.30;99.90;;;;;;5032296;28;20108;-71
2022/05/09 04:01:01;;;;;;;15.38;4.43;;;8.30;99.90;;;;;;5035396;28;20065;-70
2022/05/09 04:03:27;;;;;;;18.65;6.00;;;8.30;99.90;;;;;;5036522;28;20033;-70
2022/05/09 04:05:53;;;;;;;13.45;4.10;;;8.30;99.90;;;;;;5035666;28;20071;-70
2022/05/09 04:08:23;;;;;;;16.45;4.75;;;8.30;99.90;;;;;;5035703;28;20079;-71
2022/05/09 04:10:52;;;;;;;13.75;4.55;;;8.30;99.90;;;;;;5036784;28;20045;-71
2022/05/09 04:13:18;;;;;;;17.25;5.57;;;8.30;99.90;;;;;;5025358;28;20025;-71
2022/05/09 04:18:37;;;;;;;12.38;4.45;;;8.40;99.90;;;;;;5048026;28;20093;-72
2022/05/09 04:21:03;;;;;;;23.52;5.18;;;8.40;99.90;;;;;;5043347;28;20076;-72
2022/05/09 04:23:28;;;;;;;14.82;6.30;;;8.40;99.90;;;;;;5026209;28;20029;-72
2022/05/09 04:25:54;;;;;;;16.42;5.82;;;8.50;99.90;;;;;;5046726;28;20017;-72
2022/05/09 04:28:22;;;;;;;21.85;6.60;;;8.50;99.90;;;;;;5040421;28;20041;-72
2022/05/09 04:30:48;;;;;;;24.52;7.07;;;8.50;99.90;;;;;;5014819;28;20021;-72
2022/05/09 04:33:14;;;;;;;25.15;6.88;;;8.60;99.90;;;;;;5032464;28;20029;-72
2022/05/09 04:35:41;;;;;;;18.67;5.43;;;8.60;99.90;;;;;;5033675;28;20038;-72
2022/05/09 04:38:07;;;;;;;18.73;5.07;;;8.70;99.90;;;;;;5015066;28;20087;-73
2022/05/09 04:40:35;;;;;;;12.93;4.15;;;8.70;99.90;;;;;;5032271;28;20433;-72
2022/05/09 04:43:01;;;;;;;19.52;5.47;;;8.80;99.90;;;;;;5032063;28;20055;-70
2022/05/09 04:45:29;;;;;;;19.92;5.57;;;8.80;99.90;;;;;;5014789;28;20022;-73
2022/05/09 04:47:55;;;;;;;15.30;5.13;;;8.90;99.90;;;;;;5032199;28;20535;-75
2022/05/09 04:50:23;;;;;;;19.73;6.07;;;9.00;99.90;;;;;;5055204;22;20076;-76
2022/05/09 04:52:48;;;;;;;18.52;5.90;;;9.10;99.90;;;;;;5034449;28;20105;-77
2022/05/09 04:55:15;;;;;;;24.95;5.65;;;9.20;99.90;;;;;;5035974;28;20057;-76
2022/05/09 04:57:42;;;;;;;27.23;5.82;;;9.20;99.90;;;;;;5033736;28;20025;-77
2022/05/09 05:00:11;;;;;;;27.95;6.63;;;9.30;99.90;;;;;;5032942;28;20075;-75
2022/05/09 05:02:37;;;;;;;20.88;7.45;;;9.50;99.90;;;;;;5033117;28;20390;-77
2022/05/09 05:05:04;;;;;;;19.80;6.00;;;9.60;99.90;;;;;;5040733;28;20044;-77
2022/05/09 05:07:29;;;;;;;19.13;5.38;;;9.80;99.90;;;;;;5035517;28;20020;-78
2022/05/09 05:09:55;;;;;;;16.73;4.60;;;9.90;99.90;;;;;;5036400;28;20060;-78
2022/05/09 05:12:21;;;;;;;17.58;4.45;;;10.00;99.90;;;;;;5039003;28;20018;-79
2022/05/09 05:14:46;;;;;;;18.65;5.05;;;10.00;99.90;;;;;;5039492;28;20034;-77
2022/05/09 05:17:12;;;;;;;25.30;6.18;;;10.10;99.90;;;;;;5039721;28;20029;-79
2022/05/09 05:19:42;;;;;;;22.10;5.15;;;10.10;99.90;;;;;;5041622;28;20539;-79
2022/05/09 05:22:10;;;;;;;15.88;4.90;;;10.20;99.90;;;;;;5040048;28;20029;-77
2022/05/09 05:24:37;;;;;;;17.85;4.90;;;10.20;99.90;;;;;;5037936;28;20029;-78
2022/05/09 05:27:04;;;;;;;22.52;4.93;;;10.30;99.90;;;;;;5039347;28;20029;-77
2022/05/09 05:29:30;;;;;;;22.10;4.50;;;10.40;99.90;;;;;;5044512;28;20028;-78
2022/05/09 05:31:56;;;;;;;16.75;4.05;;;10.50;99.90;;;;;;5054861;28;20025;-78
2022/05/09 05:34:21;;;;;;;14.60;4.22;;;10.50;99.90;;;;;;5053498;28;20041;-78
2022/05/09 05:36:48;;;;;;;31.70;5.18;;;10.60;99.90;;;;;;5053303;28;20030;-77
2022/05/09 05:39:15;;;;;;;21.58;4.70;;;10.80;99.90;;;;;;5048232;28;20501;-81
2022/05/09 05:41:44;;;;;;;23.63;4.70;;;10.80;99.90;;;;;;5046296;28;20026;-77
2022/05/09 05:44:14;;;;;;;20.08;4.72;;;10.90;99.90;;;;;;5038183;28;20060;-78
2022/05/09 05:46:42;;;;;;;20.52;4.90;;;10.90;99.90;;;;;;5041515;28;20048;-79
2022/05/09 05:49:09;;;;;;;15.23;4.95;;;11.00;99.90;;;;;;5041610;28;20449;-79
2022/05/09 05:51:36;;;;;;;19.73;4.85;;;11.10;99.90;;;;;;5041243;28;20030;-78
2022/05/09 05:54:02;;;;;;;20.95;5.38;;;11.20;99.90;;;;;;5039974;28;20394;-76
2022/05/09 05:56:28;;;;;;;25.55;4.97;;;11.30;99.90;;;;;;5037653;28;20029;-77
2022/05/09 05:58:54;;;;;;;23.80;4.57;;;11.40;99.90;;;;;;5038483;28;20075;-78
2022/05/09 06:01:19;;;;;;;27.00;4.45;;;11.40;99.90;;;;;;5041894;28;20380;-77
2022/05/09 06:03:45;;;;;;;23.40;4.80;;;11.60;99.90;;;;;;5046291;28;20037;-75
2022/05/09 06:06:13;;;;;;;24.45;6.72;;;11.60;99.90;;;;;;5043484;28;20028;-76
2022/05/09 06:08:40;;;;;;;24.88;4.75;;;11.70;99.90;;;;;;5050870;28;20105;-75
2022/05/09 06:11:07;;;;;;;19.40;4.57;;;11.80;99.90;;;;;;5045176;28;20033;-76
2022/05/09 06:13:33;;;;;;;20.92;3.90;;;11.90;99.90;;;;;;5051966;28;20092;-77
2022/05/09 06:15:58;;;;;;;26.20;4.25;;;11.90;99.90;;;;;;5058369;28;20013;-76
2022/05/09 06:18:24;;;;;;;20.90;4.55;;;12.10;99.90;;;;;;5059688;28;20064;-76
2022/05/09 06:20:50;;;;;;;18.23;3.33;;;12.30;99.90;;;;;;5058216;28;20037;-77
2022/05/09 06:23:17;;;;;;;19.50;4.55;;;12.30;99.90;;;;;;5057960;28;20022;-79
2022/05/09 06:25:46;;;;;;;16.77;3.78;;;12.50;99.90;;;;;;5057764;28;20018;-81
2022/05/09 06:28:14;;;;;;;16.17;3.67;;;12.50;99.90;;;;;;5047747;28;20040;-75
2022/05/09 06:30:40;;;;;;;21.50;3.70;;;12.60;99.90;;;;;;5044418;28;20394;-75
2022/05/09 06:33:06;;;;;;;21.00;3.80;;;12.70;99.90;;;;;;5040484;28;20040;-78
2022/05/09 06:35:32;;;;;;;18.10;3.45;;;12.80;99.90;;;;;;5039429;28;20326;-77
2022/05/09 06:38:04;;;;;;;24.33;4.20;;;12.80;99.90;;;;;;5039297;28;20030;-78
2022/05/09 06:40:31;;;;;;;22.70;3.67;;;12.90;99.90;;;;;;5038268;28;20037;-78
2022/05/09 06:42:58;;;;;;;15.95;3.22;;;13.00;99.90;;;;;;5035628;28;20036;-76
2022/05/09 06:45:25;;;;;;;26.40;4.20;;;13.10;99.90;;;;;;5035264;28;20071;-78
2022/05/09 06:47:53;;;;;;;26.52;4.55;;;13.10;99.90;;;;;;5035889;28;20061;-76
2022/05/09 06:50:21;;;;;;;22.13;3.65;;;13.20;99.90;;;;;;5036510;28;20052;-76
2022/05/09 06:52:48;;;;;;;23.60;4.63;;;;;;;;;;5042103;28;20033;-77
2022/05/09 06:55:15;;;;;;;17.58;4.15;;;;;;;;;;5042713;28;20094;-77
2022/05/09 06:57:43;;;;;;;26.08;4.90;;;;;;;;;;5038448;28;20072;-77
2022/05/09 07:00:13;;;;;;;19.48;3.97;;;;;;;;;;5037114;28;20033;-78
2022/05/09 07:02:40;;;;;;;27.60;4.60;;;;;;;;;;5038002;28;20088;-77
2022/05/09 07:05:09;;;;;;;26.10;3.80;;;;;;;;;;5037349;28;20120;-75
2022/05/09 07:07:36;;;;;;;20.10;3.60;;;;;;;;;;5036920;28;20029;-78
2022/05/09 07:10:03;;;;;;;15.77;3.17;;;;;;;;;;5036581;28;20022;-78
2022/05/09 07:12:31;;;;;;;20.85;4.05;;;;;;;;;;5041207;28;20034;-78
2022/05/09 07:14:57;;;;;;;18.33;3.50;;;13.50;99.90;;;;;;5049296;28;20029;-78
2022/05/09 07:17:22;;;;;;;18.27;2.97;;;13.80;99.90;;;;;;5044796;28;20162;-77
2022/05/09 07:19:48;;;;;;;16.95;3.38;;;13.80;99.90;;;;;;5040969;28;20519;-79
2022/05/09 07:22:14;;;;;;;20.48;3.85;;;13.90;99.90;;;;;;5039533;28;20036;-79
2022/05/09 07:24:40;;;;;;;17.08;3.58;;;14.00;99.90;;;;;;5044766;28;20022;-77
2022/05/09 07:27:07;;;;;;;26.75;4.10;;;14.00;99.90;;;;;;5047854;28;20063;-77
2022/05/09 07:29:33;;;;;;;15.25;2.78;;;14.10;99.90;;;;;;5050763;28;20021;-77
2022/05/09 07:31:58;;;;;;;14.00;2.55;;;14.10;99.90;;;;;;5040804;28;20029;-77
2022/05/09 07:34:24;;;;;;;15.30;2.75;;;14.20;99.90;;;;;;5040083;28;20430;-78
2022/05/09 07:36:49;;;;;;;22.17;3.03;;;14.20;99.90;;;;;;5040797;28;20482;-77
2022/05/09 07:39:15;;;;;;;13.35;2.75;;;14.20;99.90;;;;;;5041393;28;20021;-77
2022/05/09 07:41:42;;;;;;;22.83;3.03;;;14.30;99.90;;;;;;5043529;28;20029;-78
2022/05/09 07:44:08;;;;;;;15.25;2.90;;;14.40;99.90;;;;;;5041131;28;20048;-77
2022/05/09 07:46:33;;;;;;;16.90;3.20;;;14.50;99.90;;;;;;5044630;28;20045;-78
2022/05/09 07:48:59;;;;;;;15.70;2.80;;;14.60;99.90;;;;;;5039776;28;20068;-78
2022/05/09 07:51:24;;;;;;;15.52;2.75;;;14.70;99.90;;;;;;5039457;28;20113;-79
2022/05/09 07:53:50;;;;;;;12.18;2.78;;;14.70;99.90;;;;;;5039864;28;20030;-76
2022/05/09 07:56:15;;;;;;;16.02;2.95;;;14.80;99.60;;;;;;5041167;28;20056;-78
2022/05/09 07:58:41;;;;;;;20.50;3.05;;;14.90;98.70;;;;;;5042618;28;20112;-77
2022/05/09 08:01:07;;;;;;;17.48;4.53;;;14.90;96.60;;;;;;5042879;28;20040;-78
2022/05/09 08:03:34;;;;;;;12.68;4.00;;;15.00;97.10;;;;;;5046728;28;20037;-76
2022/05/09 08:06:01;;;;;;;8.27;2.70;;;15.00;96.10;;;;;;5050583;28;20026;-76
2022/05/09 08:08:31;;;;;;;11.20;3.50;;;15.10;95.30;;;;;;5050510;28;20033;-78
2022/05/09 08:10:58;;;;;;;17.13;3.20;;;15.20;95.70;;;;;;5041020;28;20025;-77
2022/05/09 08:13:26;;;;;;;12.43;2.80;;;15.30;95.80;;;;;;5037872;28;20401;-79
2022/05/09 08:15:52;;;;;;;22.20;3.67;;;15.50;95.60;;;;;;5038612;28;20490;-77
2022/05/09 08:18:19;;;;;;;14.45;3.17;;;15.50;95.40;;;;;;5035931;28;20032;-77
2022/05/09 08:20:47;;;;;;;20.92;3.70;;;15.60;96.10;;;;;;5038627;28;20100;-79
2022/05/09 08:23:18;;;;;;;18.23;3.65;;;16.00;96.60;;;;;;5040968;28;20078;-78
2022/05/09 08:25:45;;;;;;;17.42;3.20;;;15.90;97.10;;;;;;5043714;28;20056;-78
2022/05/09 08:28:11;;;;;;;21.55;3.13;;;16.00;97.20;;;;;;5038103;28;20038;-78
2022/05/09 08:30:38;;;;;;;19.10;4.13;;;16.10;96.50;;;;;;5039882;28;20027;-78
2022/05/09 08:33:07;;;;;;;15.75;3.80;;;16.10;96.20;;;;;;5037433;28;20021;-77
2022/05/09 08:35:33;;;;;;;18.92;3.28;;;16.20;96.30;;;;;;5040672;28;20025;-78
2022/05/09 08:37:59;;;;;;;19.50;3.20;;;16.30;96.60;;;;;;5042673;28;20112;-79
2022/05/09 08:40:34;;;;;;;28.17;3.50;;;16.40;96.20;;;;;;5044610;28;20055;-78
2022/05/09 08:43:37;;;;;;;17.83;4.22;;;16.50;96.10;;;;;;5043620;28;20425;-78
2022/05/09 08:46:20;;;;;;;16.23;3.47;;;16.70;96.20;;;;;;5041677;28;20114;-78
2022/05/09 08:49:25;;;;;;;29.00;5.75;;;16.80;95.70;;;;;;5041420;28;20029;-76
2022/05/09 08:52:22;;;;;;;21.08;3.88;;;16.90;94.90;;;;;;5041127;28;20481;-83
2022/05/09 08:54:49;;;;;;;20.05;3.60;;;16.90;93.30;;;;;;5038819;28;20025;-78
2022/05/09 08:57:23;;;;;;;19.13;2.85;;;16.90;93.00;;;;;;5038863;28;20120;-79
2022/05/09 09:00:02;;;;;;;20.63;3.15;;;17.10;92.90;;;;;;5036475;28;20029;-78
2022/05/09 09:02:36;;;;;;;15.82;3.67;;;17.10;92.50;;;;;;5040851;28;20025;-77
2022/05/09 09:05:03;;;;;;;24.67;4.35;;;17.20;92.30;;;;;;5038903;28;20036;-79
2022/05/09 09:07:32;;;;;;;15.70;3.47;;;17.30;91.90;;;;;;5034816;28;20021;-79
2022/05/09 09:10:24;;;;;;;28.65;3.80;;;17.40;92.50;;;;;;5037854;28;20163;-78
2022/05/09 09:13:22;;;;;;;12.98;3.05;;;17.50;92.80;;;;;;5032616;28;20049;-76
2022/05/09 09:16:13;;;;;;;19.48;3.53;;;17.60;92.90;;;;;;5036622;28;20026;-77
2022/05/09 09:19:17;;;;;;;26.30;3.95;;;17.50;92.30;;;;;;5035052;28;20049;-77
2022/05/09 09:22:15;;;;;;;23.38;3.92;;;17.60;92.70;;;;;;5036521;28;20090;-77
2022/05/09 09:24:44;;;;;;;14.20;3.40;;;17.70;92.50;;;;;;5036583;28;20072;-77
2022/05/09 09:27:36;;;;;;;19.67;3.78;;;17.80;92.60;;;;;;5035888;28;20390;-77
2022/05/09 09:30:10;;;;;;;11.30;2.97;;;18.00;92.40;;;;;;5038512;28;20390;-78
2022/05/09 09:32:39;;;;;;;14.35;3.17;;;18.00;92.10;;;;;;5035810;28;20018;-78
2022/05/09 09:35:08;;;;;;;22.02;5.57;;;18.20;91.90;;;;;;5036441;28;20029;-77
2022/05/09 09:37:53;;;;;;;23.23;2.97;;;18.20;92.00;;;;;;5037717;28;20025;-76
2022/05/09 09:40:19;;;;;;;15.82;3.42;;;18.40;91.50;;;;;;5045689;28;20033;-77
2022/05/09 09:42:44;;;;;;;22.83;4.75;;;18.30;91.40;;;;;;5038293;28;20099;-77
2022/05/09 09:45:28;;;;;;;18.40;4.38;;;18.40;91.00;;;;;;5051231;28;20013;-75
2022/05/09 09:48:15;;;;;;;15.13;2.85;;;18.50;91.10;;;;;;5039510;28;20067;-77
2022/05/09 09:50:50;;;;;;;13.13;3.70;;;18.30;90.60;;;;;;5040048;28;20474;-76
2022/05/09 09:53:49;;;;;;;14.00;3.53;;;18.40;90.00;;;;;;5037800;28;20483;-77
2022/05/09 09:56:20;;;;;;;16.83;3.10;;;18.50;89.70;;;;;;5024746;28;20026;-77
2022/05/09 09:58:47;;;;;;;15.48;3.33;;;18.70;90.40;;;;;;5041673;28;20026;-76
2022/05/09 10:01:21;;;;;;;18.50;4.00;;;18.70;89.10;;;;;;5037648;28;20028;-76
2022/05/09 10:04:03;;;;;;;20.58;3.63;;;18.90;89.00;;;;;;5036836;28;20033;-76
2022/05/09 10:06:28;;;;;;;14.45;2.80;;;18.90;88.50;;;;;;5035798;28;20033;-76
2022/05/09 10:08:59;;;;;;;17.42;2.78;;;19.00;86.50;;;;;;5037685;28;20228;-77
2022/05/09 10:11:28;;;;;;;29.38;4.05;;;;;;;;;;5036180;28;20025;-76
2022/05/09 10:14:03;;;;;;;14.13;3.22;;;19.20;86.00;;;;;;5037551;28;20022;-76
2022/05/09 10:16:45;;;;;;;23.05;3.85;;;19.20;84.70;;;;;;5037075;28;20179;-77
2022/05/09 10:19:12;;;;;;;15.60;3.13;;;19.30;83.70;;;;;;5037792;28;20077;-76
2022/05/09 10:24:49;;;;;;;23.80;5.65;;;19.50;83.20;;;;;;5040611;28;20177;-79
2022/05/09 10:27:20;;;;;;;17.67;4.43;;;19.60;82.70;;;;;;5047120;28;20021;-76
2022/05/09 10:29:48;;;;;;;20.70;3.20;;;19.70;81.20;;;;;;5048068;28;20032;-77
2022/05/09 10:32:20;;;;;;;24.05;3.83;;;19.70;80.60;;;;;;5038146;28;20037;-76
2022/05/09 10:35:12;;;;;;;14.60;3.45;;;19.80;80.80;;;;;;5039365;28;20034;-76
2022/05/09 10:37:53;;;;;;;16.52;3.13;;;19.70;78.20;;;;;;5038655;28;20101;-77
2022/05/09 10:40:33;;;;;;;11.80;3.13;;;19.80;74.60;;;;;;5037409;28;20057;-77
2022/05/09 10:43:09;;;;;;;14.45;3.35;;;19.90;73.40;;;;;;5038830;28;20101;-78
2022/05/09 10:45:44;;;;;;;20.38;3.28;;;20.10;76.30;;;;;;5036555;28;20026;-76
2022/05/09 10:48:21;;;;;;;19.92;3.22;;;20.20;75.90;;;;;;5039014;28;20067;-78
2022/05/09 10:51:16;;;;;;;13.65;3.47;;;20.30;75.50;;;;;;5038593;28;20009;-78
2022/05/09 10:54:06;;;;;;;10.05;2.67;;;20.40;74.70;;;;;;5037594;28;20091;-78
2022/05/09 10:56:41;;;;;;;10.63;3.13;;;20.50;71.80;;;;;;5036210;28;20056;-79
2022/05/09 10:59:11;;;;;;;;;;;20.60;67.80;;;;;;5037113;28;20467;-77
2022/05/09 11:01:56;;;;;;;16.58;3.17;;;20.60;67.90;;;;;;5038159;28;19936;-76
2022/05/09 11:04:24;;;;;;;16.08;3.17;;;20.80;66.90;;;;;;5038420;28;20075;-76
2022/05/09 11:06:57;;;;;;;17.60;3.58;;;20.80;66.30;;;;;;5036567;28;20079;-76
2022/05/09 11:09:50;;;;;;;13.50;3.22;;;20.80;64.00;;;;;;5036139;28;20032;-78
2022/05/09 11:12:47;;;;;;;17.92;3.25;;;20.90;65.10;;;;;;5036162;28;20018;-75
2022/05/09 11:15:50;;;;;;;15.73;3.45;;;21.00;63.40;;;;;;5035864;28;20040;-79
2022/05/09 11:18:52;;;;;;;11.25;3.15;;;21.00;62.90;;;;;;5033794;28;20051;-78
2022/05/09 11:21:43;;;;;;;12.15;3.05;;;21.10;62.80;;;;;;5035360;28;20056;-77
2022/05/09 11:24:42;;;;;;;9.55;2.80;;;21.10;60.90;;;;;;5036179;28;20433;-75
2022/05/09 11:27:23;;;;;;;17.10;3.00;;;21.20;61.80;;;;;;5034977;28;20022;-77
2022/05/09 11:30:25;;;;;;;17.08;4.85;;;21.30;59.80;;;;;;5037288;28;20387;-75
2022/05/09 11:33:00;;;;;;;21.00;3.72;;;21.40;59.10;;;;;;5036782;28;20034;-77
2022/05/09 11:35:35;;;;;;;13.73;3.13;;;21.60;58.00;;;;;;5035115;28;20108;-76
2022/05/09 11:38:17;;;;;;;19.67;3.58;;;21.70;58.90;;;;;;5036280;28;20026;-77
2022/05/09 11:40:46;;;;;;;13.73;3.45;;;21.80;59.40;;;;;;5035978;28;20017;-79
2022/05/09 11:43:37;;;;;;;17.08;3.78;;;21.90;59.50;;;;;;5037844;28;20048;-76
2022/05/09 11:46:26;;;;;;;11.23;3.10;;;22.10;59.20;;;;;;5033592;28;20492;-75
2022/05/09 11:49:05;;;;;;;15.48;3.20;;;22.20;57.10;;;;;;5034678;28;20035;-75
2022/05/09 11:51:48;;;;;;;18.90;3.75;;;22.30;57.90;;;;;;5034428;28;20030;-75
2022/05/09 11:54:19;;;;;;;10.70;2.90;;;22.30;59.40;;;;;;5034137;28;20025;-76
2022/05/09 11:56:52;;;;;;;15.85;3.30;;;22.30;59.40;;;;;;5033741;28;20170;-75
2022/05/09 11:59:24;;;;;;;17.17;3.53;;;22.40;59.40;;;;;;5033875;28;20040;-76
2022/05/09 12:01:55;;;;;;;20.45;3.47;;;22.50;59.80;;;;;;5033617;28;20037;-78
2022/05/09 12:04:28;;;;;;;19.38;3.75;;;22.50;59.60;;;;;;5042017;28;20120;-75
2022/05/09 12:06:54;;;;;;;14.40;3.35;;;22.50;59.00;;;;;;5046520;28;20037;-76
2022/05/09 12:10:11;;;;;;;32.42;4.45;;;22.60;59.30;;;;;;5044053;28;20024;-78
2022/05/09 12:12:41;;;;;;;18.90;3.90;;;22.60;58.40;;;;;;5033577;28;20025;-75
2022/05/09 12:15:29;;;;;;;15.30;4.18;;;22.60;58.60;;;;;;5033880;28;20068;-76
2022/05/09 12:17:58;;;;;;;16.52;3.55;;;22.60;59.00;;;;;;5034782;28;20030;-75
2022/05/09 12:20:27;;;;;;;26.65;6.60;;;22.70;59.10;;;;;;5035075;28;20030;-75
2022/05/09 12:23:02;;;;;;;16.20;5.53;;;22.70;59.10;;;;;;5038572;28;20501;-77
2022/05/09 12:25:39;;;;;;;20.27;3.33;;;22.80;58.70;;;;;;5037700;28;20060;-75
2022/05/09 12:28:21;;;;;;;12.63;3.20;;;22.90;57.20;;;;;;5041218;28;20017;-76
2022/05/09 12:30:48;;;;;;;11.00;2.80;;;22.90;57.10;;;;;;5052092;28;20022;-74
2022/05/09 12:33:36;;;;;;;15.48;3.30;;;23.00;57.10;;;;;;5044188;28;20497;-76
2022/05/09 12:36:20;;;;;;;12.98;3.40;;;22.90;57.10;;;;;;5044564;28;20029;-77
2022/05/09 12:38:54;;;;;;;15.30;3.35;;;23.00;57.20;;;;;;5041041;28;20026;-75
2022/05/09 12:41:24;;;;;;;14.98;3.72;;;23.10;56.80;;;;;;5043158;28;20057;-74
2022/05/09 12:43:57;;;;;;;13.80;5.30;;;23.10;56.00;;;;;;5044414;28;20025;-76
2022/05/09 12:46:34;;;;;;;12.48;3.28;;;23.20;56.00;;;;;;5043415;28;20064;-77
2022/05/09 12:49:02;;;;;;;11.95;2.97;;;23.30;55.70;;;;;;5032520;28;20026;-76
2022/05/09 12:51:30;;;;;;;18.35;2.85;;;23.30;55.20;;;;;;5033233;28;20133;-74
2022/05/09 12:53:57;;;;;;;22.42;4.85;;;23.40;55.40;;;;;;5033986;28;20057;-75
2022/05/09 12:56:27;;;;;;;16.50;3.35;;;23.50;54.80;;;;;;5034025;28;20072;-76
2022/05/09 12:59:05;;;;;;;10.73;2.92;;;23.60;55.20;;;;;;5034126;28;20026;-76
2022/05/09 13:01:32;;;;;;;13.20;3.78;;;23.90;54.00;;;;;;5038271;28;20040;-76
2022/05/09 13:04:04;;;;;;;15.77;3.03;;;24.10;53.10;;;;;;5032430;28;20474;-76
2022/05/09 13:06:34;;;;;;;13.80;4.03;;;24.20;52.70;;;;;;5032440;28;20026;-74
2022/05/09 13:09:19;;;;;;;8.75;2.65;;;24.10;52.80;;;;;;5034511;28;20020;-77
2022/05/09 13:11:57;;;;;;;13.13;3.50;;;24.10;52.70;;;;;;5032830;28;20427;-76
2022/05/09 13:14:38;;;;;;;13.50;3.08;;;24.30;52.30;;;;;;5033146;28;20029;-76